createdAt,value
2019-02-23T00:01:52.830Z,57.83
2019-02-23T00:04:22.357Z,56.20
2019-02-23T00:06:52.905Z,55.63
2019-02-23T00:09:22.460Z,57.67
2019-02-23T00:11:51.886Z,57.83
2019-02-23T00:14:21.816Z,56.80
2019-02-23T00:16:51.389Z,58.80
2019-02-23T00:19:24.893Z,58.93
2019-02-23T00:21:51.976Z,56.10
2019-02-23T00:24:21.502Z,58.77
2019-02-23T00:26:51.025Z,57.50
2019-02-23T00:29:20.584Z,55.60
2019-02-23T00:31:50.358Z,57.10
2019-02-23T00:34:20.072Z,57.00
2019-02-23T00:36:49.652Z,56.73
2019-02-23T00:39:19.288Z,55.50
2019-02-23T00:41:48.725Z,56.40
2019-02-23T00:44:18.299Z,56.23
2019-02-23T00:46:47.686Z,54.53
2019-02-23T00:49:17.105Z,56.57
2019-02-23T00:51:46.612Z,57.10
2019-02-23T00:54:16.098Z,56.83
2019-02-23T00:56:45.550Z,55.03
2019-02-23T00:59:14.992Z,52.70
2019-02-23T01:01:44.404Z,53.50
2019-02-23T01:04:13.978Z,53.53
2019-02-23T01:06:43.486Z,54.97
2019-02-23T01:09:12.934Z,55.80
2019-02-23T01:11:42.418Z,52.20
2019-02-23T01:14:12.103Z,49.83
2019-02-23T01:16:41.556Z,53.73
2019-02-23T01:19:11.110Z,53.73
2019-02-23T01:21:40.610Z,54.30
2019-02-23T01:24:10.167Z,51.33
2019-02-23T01:26:39.742Z,51.33
2019-02-23T01:29:09.346Z,52.17
2019-02-23T01:31:38.858Z,53.40
2019-02-23T01:34:08.364Z,52.03
2019-02-23T01:36:37.890Z,52.03
2019-02-23T01:39:07.849Z,52.27
2019-02-23T01:41:37.281Z,51.30
2019-02-23T01:44:06.812Z,51.93
2019-02-23T01:46:36.296Z,53.43
2019-02-23T01:49:05.884Z,52.80
2019-02-23T01:51:35.342Z,51.13
2019-02-23T01:54:04.855Z,52.73
2019-02-23T01:56:34.338Z,49.70
2019-02-23T01:59:03.766Z,51.60
2019-02-23T02:01:33.286Z,50.57
2019-02-23T02:04:02.727Z,50.03
2019-02-23T02:06:33.622Z,50.43
2019-02-23T02:09:03.370Z,49.60
2019-02-23T02:11:32.905Z,49.87
2019-02-23T02:14:02.402Z,51.80
2019-02-23T02:16:32.199Z,54.00
2019-02-23T02:19:01.601Z,49.37
2019-02-23T02:21:31.096Z,49.13
2019-02-23T02:24:00.671Z,47.97
2019-02-23T02:26:30.081Z,49.67
2019-02-23T02:28:59.557Z,53.50
2019-02-23T02:31:29.086Z,50.43
2019-02-23T02:34:12.604Z,49.17
2019-02-23T02:36:41.968Z,49.93
2019-02-23T02:39:12.599Z,47.77
2019-02-23T02:41:42.205Z,48.50
2019-02-23T02:44:11.659Z,48.57
2019-02-23T02:46:41.162Z,47.73
2019-02-23T02:49:10.627Z,46.83
2019-02-23T02:51:40.162Z,46.10
2019-02-23T02:54:09.626Z,47.43
2019-02-23T02:56:39.148Z,49.60
2019-02-23T02:59:08.628Z,45.23
2019-02-23T03:01:38.131Z,48.30
2019-02-23T03:04:07.617Z,48.63
2019-02-23T03:06:37.101Z,50.13
2019-02-23T03:09:08.784Z,54.37
2019-02-23T03:11:40.151Z,51.33
2019-02-23T03:14:09.670Z,47.50
2019-02-23T03:16:39.174Z,47.47
2019-02-23T03:19:08.663Z,46.30
2019-02-23T03:21:38.198Z,46.87
2019-02-23T03:24:07.769Z,47.77
2019-02-23T03:26:37.212Z,47.60
2019-02-23T03:29:06.630Z,48.27
2019-02-23T03:31:36.133Z,47.30
2019-02-23T03:34:05.599Z,49.40
2019-02-23T03:36:35.090Z,49.67
2019-02-23T03:39:05.481Z,45.87
2019-02-23T03:41:36.925Z,47.73
2019-02-23T03:44:06.389Z,48.30
2019-02-23T03:46:35.975Z,47.23
2019-02-23T03:49:05.455Z,47.40
2019-02-23T03:51:34.913Z,43.83
2019-02-23T03:54:04.488Z,44.23
2019-02-23T03:56:34.331Z,45.20
2019-02-23T03:59:03.864Z,43.87
2019-02-23T04:01:33.329Z,40.17
2019-02-23T04:04:02.889Z,40.33
2019-02-23T04:06:32.441Z,42.93
2019-02-23T04:09:02.889Z,41.37
2019-02-23T04:11:33.798Z,40.90
2019-02-23T04:14:03.316Z,39.43
2019-02-23T04:16:32.804Z,39.77
2019-02-23T04:19:02.408Z,39.33
2019-02-23T04:21:31.870Z,40.43
2019-02-23T04:24:01.498Z,39.47
2019-02-23T04:26:31.031Z,40.90
2019-02-23T04:29:00.505Z,40.03
2019-02-23T04:31:29.891Z,40.87
2019-02-23T04:33:59.407Z,38.57
2019-02-23T04:36:28.883Z,40.63
2019-02-23T04:38:58.353Z,41.13
2019-02-23T04:41:27.772Z,41.87
2019-02-23T04:43:57.262Z,40.10
2019-02-23T04:46:26.693Z,38.57
2019-02-23T04:48:56.091Z,42.00
2019-02-23T04:51:25.559Z,38.27
2019-02-23T04:53:55.578Z,39.87
2019-02-23T04:56:25.055Z,38.07
2019-02-23T04:58:54.531Z,38.73
2019-02-23T05:01:23.991Z,40.37
2019-02-23T05:03:53.691Z,38.53
2019-02-23T05:06:23.144Z,37.57
2019-02-23T05:08:52.564Z,38.50
2019-02-23T05:11:21.991Z,37.23
2019-02-23T05:13:51.480Z,38.00
2019-02-23T05:16:20.874Z,37.40
2019-02-23T05:18:50.241Z,38.60
2019-02-23T05:21:26.515Z,37.20
2019-02-23T05:23:50.865Z,38.67
2019-02-23T05:26:20.303Z,36.47
2019-02-23T05:28:49.881Z,38.80
2019-02-23T05:31:22.084Z,38.50
2019-02-23T05:33:50.523Z,36.30
2019-02-23T05:36:20.090Z,36.33
2019-02-23T05:38:49.581Z,35.97
2019-02-23T05:41:19.100Z,33.20
2019-02-23T05:43:48.500Z,33.70
2019-02-23T05:46:17.943Z,32.37
2019-02-23T05:48:47.437Z,32.80
2019-02-23T05:51:17.304Z,32.80
2019-02-23T05:53:46.899Z,32.73
2019-02-23T05:56:16.482Z,33.00
2019-02-23T05:58:45.937Z,33.17
2019-02-23T06:01:15.422Z,34.40
2019-02-23T06:03:44.940Z,32.90
2019-02-23T06:06:14.419Z,34.53
2019-02-23T06:08:43.943Z,34.70
2019-02-23T06:11:13.417Z,34.03
2019-02-23T06:13:42.903Z,34.20
2019-02-23T06:16:12.395Z,34.77
2019-02-23T06:18:41.883Z,34.33
2019-02-23T06:21:11.442Z,32.00
2019-02-23T06:23:41.013Z,33.57
2019-02-23T06:26:10.414Z,32.07
2019-02-23T06:28:39.973Z,32.73
2019-02-23T06:31:09.383Z,31.40
2019-02-23T06:33:38.939Z,33.57
2019-02-23T06:36:08.428Z,30.67
2019-02-23T06:38:37.853Z,33.60
2019-02-23T06:41:07.223Z,31.73
2019-02-23T06:43:36.765Z,33.70
2019-02-23T06:46:06.221Z,33.13
2019-02-23T06:48:35.825Z,33.50
2019-02-23T06:51:05.263Z,32.33
2019-02-23T06:53:34.727Z,32.43
2019-02-23T06:56:04.193Z,32.87
2019-02-23T06:58:33.670Z,32.23
2019-02-23T07:01:03.187Z,33.33
2019-02-23T07:03:32.872Z,30.50
2019-02-23T07:06:02.209Z,31.37
2019-02-23T07:08:31.884Z,32.13
2019-02-23T07:11:01.543Z,30.07
2019-02-23T07:13:31.013Z,31.07
2019-02-23T07:16:00.524Z,30.10
2019-02-23T07:18:30.035Z,31.30
2019-02-23T07:20:59.569Z,29.57
2019-02-23T07:23:29.175Z,29.47
2019-02-23T07:25:59.166Z,31.83
2019-02-23T07:28:28.645Z,30.57
2019-02-23T07:30:58.070Z,30.13
2019-02-23T07:33:32.981Z,30.10
2019-02-23T07:35:58.619Z,30.13
2019-02-23T07:38:28.025Z,31.07
2019-02-23T07:40:57.481Z,30.87
2019-02-23T07:43:27.099Z,30.93
2019-02-23T07:45:56.576Z,29.90
2019-02-23T07:48:26.043Z,29.17
2019-02-23T07:50:55.592Z,28.23
2019-02-23T07:53:25.101Z,29.20
2019-02-23T07:55:54.629Z,29.00
2019-02-23T07:58:24.146Z,26.80
2019-02-23T08:00:53.624Z,29.70
2019-02-23T08:03:23.127Z,27.87
2019-02-23T08:05:52.646Z,29.63
2019-02-23T08:08:22.228Z,30.20
2019-02-23T08:10:52.248Z,27.37
2019-02-23T08:13:21.745Z,29.57
2019-02-23T08:15:51.334Z,28.30
2019-02-23T08:18:20.849Z,28.33
2019-02-23T08:20:50.302Z,27.37
2019-02-23T08:23:19.802Z,28.13
2019-02-23T08:25:49.177Z,30.07
2019-02-23T08:28:18.718Z,27.97
2019-02-23T08:30:48.209Z,27.70
2019-02-23T08:33:17.645Z,28.23
2019-02-23T08:35:47.182Z,26.10
2019-02-23T08:38:16.635Z,26.97
2019-02-23T08:40:46.091Z,25.73
2019-02-23T08:43:15.531Z,26.67
2019-02-23T08:45:45.053Z,26.37
2019-02-23T08:48:14.547Z,27.00
2019-02-23T08:50:44.129Z,25.97
2019-02-23T08:53:13.516Z,26.93
2019-02-23T08:55:43.029Z,27.63
2019-02-23T08:58:12.495Z,26.57
2019-02-23T09:00:41.975Z,25.93
2019-02-23T09:03:11.562Z,25.57
2019-02-23T09:05:40.998Z,25.60
2019-02-23T09:08:10.427Z,24.97
2019-02-23T09:10:39.922Z,23.97
2019-02-23T09:13:10.800Z,25.37
2019-02-23T09:15:40.267Z,23.43
2019-02-23T09:18:09.797Z,23.23
2019-02-23T09:20:39.371Z,23.47
2019-02-23T09:23:08.811Z,24.03
2019-02-23T09:25:38.321Z,23.33
2019-02-23T09:28:07.830Z,24.03
2019-02-23T09:30:37.249Z,23.17
2019-02-23T09:33:06.654Z,23.90
2019-02-23T09:35:36.114Z,22.83
2019-02-23T09:38:05.677Z,23.80
2019-02-23T09:40:35.240Z,22.57
2019-02-23T09:43:04.844Z,22.90
2019-02-23T09:45:34.473Z,22.83
2019-02-23T09:48:04.022Z,23.37
2019-02-23T09:50:33.567Z,22.10
2019-02-23T09:53:10.848Z,23.90
2019-02-23T09:55:35.000Z,22.93
2019-02-23T09:58:04.499Z,22.03
2019-02-23T10:00:34.048Z,22.73
2019-02-23T10:03:03.614Z,22.33
2019-02-23T10:05:33.058Z,21.93
2019-02-23T10:08:02.566Z,21.63
2019-02-23T10:10:32.134Z,21.33
2019-02-23T10:13:01.584Z,22.27
2019-02-23T10:15:31.154Z,22.30
2019-02-23T10:18:01.845Z,22.77
2019-02-23T10:20:31.363Z,22.87
2019-02-23T10:23:01.583Z,21.20
2019-02-23T10:25:31.333Z,21.40
2019-02-23T10:28:00.827Z,20.83
2019-02-23T10:30:30.285Z,21.23
2019-02-23T10:32:59.958Z,20.00
2019-02-23T10:35:29.802Z,20.47
2019-02-23T10:37:59.244Z,19.30
2019-02-23T10:40:28.640Z,20.23
2019-02-23T10:42:58.063Z,20.20
2019-02-23T10:45:27.526Z,21.23
2019-02-23T10:47:57.080Z,20.73
2019-02-23T10:50:26.554Z,20.67
2019-02-23T10:52:56.096Z,20.53
2019-02-23T10:55:25.563Z,21.03
2019-02-23T10:57:54.957Z,20.60
2019-02-23T11:00:24.770Z,20.90
2019-02-23T11:02:54.244Z,20.07
2019-02-23T11:05:23.797Z,19.57
2019-02-23T11:07:53.222Z,20.17
2019-02-23T11:10:23.499Z,21.13
2019-02-23T11:12:53.144Z,20.50
2019-02-23T11:15:22.752Z,21.87
2019-02-23T11:17:52.440Z,21.63
2019-02-23T11:20:23.319Z,21.20
2019-02-23T11:22:52.932Z,21.00
2019-02-23T11:25:23.265Z,20.77
2019-02-23T11:27:53.004Z,20.47
2019-02-23T11:30:22.630Z,20.20
2019-02-23T11:32:52.150Z,19.73
2019-02-23T11:35:21.612Z,19.30
2019-02-23T11:37:51.095Z,19.13
2019-02-23T11:40:20.604Z,18.43
2019-02-23T11:42:50.139Z,19.93
2019-02-23T11:45:19.756Z,19.97
2019-02-23T11:47:49.252Z,19.03
2019-02-23T11:50:19.647Z,18.97
2019-02-23T11:52:49.084Z,20.00
2019-02-23T11:55:18.575Z,18.17
2019-02-23T11:57:48.106Z,18.77
2019-02-23T12:00:17.628Z,19.40
2019-02-23T12:02:52.566Z,18.37
2019-02-23T12:05:18.336Z,19.23
2019-02-23T12:07:47.834Z,18.60
2019-02-23T12:10:17.490Z,19.13
2019-02-23T12:12:46.979Z,17.83
2019-02-23T12:15:16.601Z,18.87
2019-02-23T12:17:46.061Z,18.47
2019-02-23T12:20:15.781Z,16.70
2019-02-23T12:22:45.527Z,16.70
2019-02-23T12:25:16.218Z,18.00
2019-02-23T12:27:45.930Z,17.23
2019-02-23T12:30:15.649Z,17.63
2019-02-23T12:32:45.163Z,17.37
2019-02-23T12:35:14.670Z,16.87
2019-02-23T12:37:44.142Z,17.90
2019-02-23T12:40:14.300Z,17.20
2019-02-23T12:42:43.838Z,19.20
2019-02-23T12:45:13.829Z,18.93
2019-02-23T12:47:43.450Z,18.17
2019-02-23T12:50:13.600Z,17.40
2019-02-23T12:52:44.370Z,17.47
2019-02-23T12:55:13.810Z,17.37
2019-02-23T12:57:43.305Z,17.00
2019-02-23T13:00:15.282Z,17.00
2019-02-23T13:02:44.819Z,17.00
2019-02-23T13:05:14.309Z,18.70
2019-02-23T13:07:43.872Z,17.10
2019-02-23T13:10:13.884Z,16.10
2019-02-23T13:12:46.592Z,16.10
2019-02-23T13:15:19.092Z,16.40
2019-02-23T13:18:03.264Z,15.70
2019-02-23T13:20:38.600Z,16.00
2019-02-23T13:23:34.762Z,16.27
2019-02-23T13:26:15.831Z,14.93
2019-02-23T13:29:06.426Z,15.80
2019-02-23T13:31:47.960Z,14.57
2019-02-23T13:34:44.425Z,15.73
2019-02-23T13:37:25.700Z,15.67
2019-02-23T13:40:03.866Z,14.80
2019-02-23T13:42:45.744Z,15.40
2019-02-23T13:45:34.689Z,15.33
2019-02-23T13:48:21.212Z,16.10
2019-02-23T13:51:11.144Z,14.90
2019-02-23T13:53:43.718Z,14.63
2019-02-23T13:56:22.064Z,14.57
2019-02-23T13:59:05.302Z,14.33
2019-02-23T14:01:43.613Z,14.17
2019-02-23T14:04:34.147Z,13.83
2019-02-23T14:07:06.729Z,14.90
2019-02-23T14:09:39.298Z,14.87
2019-02-23T14:12:43.384Z,14.40
2019-02-23T14:15:48.661Z,14.80
2019-02-23T14:18:29.924Z,13.07
2019-02-23T14:23:52.502Z,12.60
2019-02-23T14:27:00.918Z,13.10
2019-02-23T14:29:53.132Z,12.83
2019-02-23T14:32:25.662Z,12.20
2019-02-23T14:35:31.116Z,13.00
2019-02-23T14:38:03.728Z,12.77
2019-02-23T14:41:03.433Z,13.70
2019-02-23T14:44:04.574Z,13.57
2019-02-23T14:46:58.924Z,13.17
2019-02-23T14:49:39.687Z,13.13
2019-02-23T14:52:37.550Z,12.83
2019-02-23T14:55:13.073Z,12.60
2019-02-23T14:58:04.255Z,13.50
2019-02-23T15:00:45.654Z,13.53
2019-02-23T15:03:24.004Z,13.37
2019-02-23T15:08:40.354Z,13.77
2019-02-23T15:11:27.801Z,13.47
2019-02-23T15:14:11.969Z,13.43
2019-02-23T15:16:53.345Z,12.87
2019-02-23T15:19:28.384Z,13.23
2019-02-23T15:22:09.923Z,13.27
2019-02-23T15:25:13.157Z,12.97
2019-02-23T15:27:56.457Z,13.07
2019-02-23T15:30:29.867Z,13.67
2019-02-23T15:33:20.384Z,14.10
2019-02-23T15:35:55.734Z,14.67
2019-02-23T15:38:43.362Z,14.30
2019-02-23T15:41:41.333Z,13.87
2019-02-23T15:47:22.315Z,13.67
2019-02-23T15:49:51.730Z,13.07
2019-02-23T15:52:21.313Z,13.07
2019-02-23T15:54:50.849Z,13.47
2019-02-23T15:57:29.969Z,13.23
2019-02-23T15:59:59.429Z,13.77
2019-02-23T16:02:29.059Z,13.63
2019-02-23T16:04:58.693Z,13.77
2019-02-23T16:07:28.247Z,14.00
2019-02-23T16:09:58.773Z,13.13
2019-02-23T16:12:28.389Z,13.13
2019-02-23T16:14:57.861Z,13.10
2019-02-23T16:17:27.531Z,13.73
2019-02-23T16:19:57.018Z,13.43
2019-02-23T16:22:26.589Z,14.03
2019-02-23T16:24:59.641Z,13.83
2019-02-23T16:27:29.163Z,14.17
2019-02-23T16:29:58.661Z,14.30
2019-02-23T16:32:28.155Z,13.63
2019-02-23T16:34:57.795Z,14.83
2019-02-23T16:37:27.272Z,15.03
2019-02-23T16:39:56.801Z,15.63
2019-02-23T16:42:26.285Z,14.73
2019-02-23T16:44:55.837Z,15.33
2019-02-23T16:47:25.285Z,15.90
2019-02-23T16:49:54.799Z,16.97
2019-02-23T16:55:05.333Z,16.07
2019-02-23T16:57:35.169Z,15.97
2019-02-23T17:00:06.715Z,15.33
2019-02-23T17:02:36.251Z,15.20
2019-02-23T17:05:07.461Z,15.83
2019-02-23T17:07:37.013Z,16.20
2019-02-23T17:10:07.543Z,16.50
2019-02-23T17:15:24.491Z,17.30
2019-02-23T17:17:53.867Z,15.80
2019-02-23T17:20:25.591Z,16.30
2019-02-23T17:22:54.637Z,16.90
2019-02-23T17:25:24.051Z,16.73
2019-02-23T17:27:53.447Z,16.83
2019-02-23T17:30:23.089Z,16.47
2019-02-23T17:32:52.653Z,16.73
2019-02-23T17:35:22.131Z,15.93
2019-02-23T17:37:51.658Z,16.17
2019-02-23T17:40:21.213Z,15.93
2019-02-23T17:42:50.666Z,16.67
2019-02-23T17:45:20.214Z,16.93
2019-02-23T17:47:49.775Z,15.53
2019-02-23T17:50:19.165Z,16.13
2019-02-23T17:52:48.783Z,17.20
2019-02-23T17:55:18.275Z,16.83
2019-02-23T17:57:47.876Z,17.97
2019-02-23T18:00:18.967Z,16.30
2019-02-23T18:02:48.476Z,17.33
2019-02-23T18:05:17.967Z,18.60
2019-02-23T18:07:47.497Z,17.53
2019-02-23T18:10:17.075Z,18.37
2019-02-23T18:12:46.561Z,18.47
2019-02-23T18:15:16.157Z,18.47
2019-02-23T18:17:45.563Z,18.27
2019-02-23T18:23:02.576Z,18.80
2019-02-23T18:25:32.481Z,18.23
2019-02-23T18:28:02.066Z,19.50
2019-02-23T18:30:31.626Z,18.23
2019-02-23T18:33:01.137Z,18.87
2019-02-23T18:35:30.602Z,18.97
2019-02-23T18:38:00.087Z,19.23
2019-02-23T18:40:29.584Z,19.17
2019-02-23T18:42:59.123Z,19.57
2019-02-23T18:45:28.653Z,20.23
2019-02-23T18:47:59.013Z,20.10
2019-02-23T18:50:28.469Z,19.57
2019-02-23T18:52:57.941Z,19.40
2019-02-23T18:55:28.367Z,20.10
2019-02-23T18:57:57.886Z,20.30
2019-02-23T19:00:27.327Z,19.67
2019-02-23T19:02:56.728Z,21.10
2019-02-23T19:05:27.147Z,19.50
2019-02-23T19:07:56.639Z,20.13
2019-02-23T19:10:26.093Z,20.33
2019-02-23T19:12:55.572Z,20.53
2019-02-23T19:15:25.037Z,20.33
2019-02-23T19:17:54.543Z,20.77
2019-02-23T19:20:23.975Z,20.60
2019-02-23T19:22:53.493Z,20.13
2019-02-23T19:25:22.985Z,20.20
2019-02-23T19:27:52.844Z,18.80
2019-02-23T19:30:22.335Z,19.60
2019-02-23T19:32:51.878Z,19.20
2019-02-23T19:35:21.390Z,20.70
2019-02-23T19:37:50.887Z,19.80
2019-02-23T19:40:20.452Z,19.43
2019-02-23T19:42:49.912Z,20.60
2019-02-23T19:45:19.308Z,20.43
2019-02-23T19:47:48.829Z,19.17
2019-02-23T19:50:21.899Z,19.40
2019-02-23T19:52:51.428Z,20.20
2019-02-23T19:55:20.892Z,20.53
2019-02-23T19:57:50.465Z,19.60
2019-02-23T20:00:19.993Z,19.57
2019-02-23T20:02:49.540Z,20.20
2019-02-23T20:05:19.008Z,18.40
2019-02-23T20:07:48.508Z,18.97
2019-02-23T20:10:17.996Z,19.90
2019-02-23T20:12:47.463Z,20.53
2019-02-23T20:15:16.950Z,21.73
2019-02-23T20:17:46.404Z,20.67
2019-02-23T20:20:15.929Z,20.57
2019-02-23T20:22:45.314Z,20.93
2019-02-23T20:25:14.824Z,20.83
2019-02-23T20:27:44.289Z,20.83
2019-02-23T20:30:13.758Z,21.47
2019-02-23T20:32:43.227Z,21.97
2019-02-23T20:35:12.708Z,21.97
2019-02-23T20:37:42.111Z,20.90
2019-02-23T20:40:11.523Z,22.00
2019-02-23T20:42:41.018Z,21.40
2019-02-23T20:45:10.530Z,21.47
2019-02-23T20:47:40.045Z,22.10
2019-02-23T20:50:10.866Z,22.33
2019-02-23T20:52:40.394Z,22.50
2019-02-23T20:55:09.980Z,21.97
2019-02-23T20:57:39.428Z,20.97
2019-02-23T21:00:12.526Z,22.40
2019-02-23T21:02:42.070Z,22.07
2019-02-23T21:05:14.598Z,22.57
2019-02-23T21:07:44.052Z,21.00
2019-02-23T21:10:13.498Z,21.87
2019-02-23T21:12:42.903Z,22.63
2019-02-23T21:15:12.405Z,23.50
2019-02-23T21:17:41.826Z,21.43
2019-02-23T21:20:11.724Z,22.93
2019-02-23T21:22:41.188Z,21.90
2019-02-23T21:25:10.638Z,21.97
2019-02-23T21:27:40.255Z,22.13
2019-02-23T21:30:10.928Z,23.00
2019-02-23T21:32:40.429Z,22.73
2019-02-23T21:35:09.841Z,22.13
2019-02-23T21:37:39.311Z,22.27
2019-02-23T21:40:09.847Z,22.50
2019-02-23T21:42:39.330Z,22.77
2019-02-23T21:45:09.505Z,22.80
2019-02-23T21:47:38.917Z,25.33
2019-02-23T21:50:09.973Z,22.83
2019-02-23T21:52:39.452Z,22.87
2019-02-23T21:55:08.986Z,23.40
2019-02-23T21:57:38.498Z,25.00
2019-02-23T22:00:09.644Z,24.63
2019-02-23T22:02:39.224Z,23.20
2019-02-23T22:05:12.364Z,24.80
2019-02-23T22:07:39.737Z,24.70
2019-02-23T22:10:09.654Z,25.43
2019-02-23T22:12:39.158Z,25.40
2019-02-23T22:15:08.774Z,24.80
2019-02-23T22:17:38.170Z,26.07
2019-02-23T22:20:08.158Z,26.87
2019-02-23T22:22:37.731Z,24.80
2019-02-23T22:25:08.232Z,24.90
2019-02-23T22:27:37.686Z,24.93
2019-02-23T22:30:08.389Z,25.27
2019-02-23T22:32:38.186Z,24.50
2019-02-23T22:35:07.734Z,26.10
2019-02-23T22:37:37.244Z,23.73
2019-02-23T22:40:07.320Z,23.33
2019-02-23T22:42:36.790Z,24.70
2019-02-23T22:45:07.910Z,23.93
2019-02-23T22:47:37.488Z,24.57
2019-02-23T22:50:08.558Z,23.97
2019-02-23T22:52:38.070Z,23.63
2019-02-23T22:55:07.500Z,24.27
2019-02-23T22:57:40.475Z,25.80
2019-02-23T23:00:14.990Z,24.23
2019-02-23T23:02:44.526Z,23.70
2019-02-23T23:05:14.140Z,24.80
2019-02-23T23:07:43.690Z,25.03
2019-02-23T23:10:13.130Z,26.50
2019-02-23T23:12:42.680Z,24.40
2019-02-23T23:15:12.338Z,23.70
2019-02-23T23:17:41.893Z,23.87
2019-02-23T23:20:11.375Z,23.17
2019-02-23T23:22:40.818Z,23.43
2019-02-23T23:25:10.372Z,23.50
2019-02-23T23:27:39.790Z,22.93
2019-02-23T23:30:09.612Z,23.33
2019-02-23T23:32:39.097Z,23.50
2019-02-23T23:35:10.350Z,22.57
2019-02-23T23:37:39.905Z,23.77
2019-02-23T23:40:09.372Z,23.03
2019-02-23T23:42:40.569Z,24.57
2019-02-23T23:45:10.199Z,23.30
2019-02-23T23:47:39.657Z,22.93
2019-02-23T23:50:09.368Z,24.37
2019-02-23T23:52:38.829Z,23.97
2019-02-23T23:55:08.354Z,23.40
2019-02-23T23:57:37.814Z,23.77
